sensor_id;sensor_type;location;lat;lon;timestamp;P1;durP1;ratioP1;P2;durP2;ratioP2
17024;SDS011;8629;42.496;25.620;2024-01-11T00:02:19;8.93;;;5.93;;
17024;SDS011;8629;42.496;25.620;2024-01-11T00:04:46;6.07;;;4.77;;
17024;SDS011;8629;42.496;25.620;2024-01-11T00:07:13;7.17;;;3.70;;
17024;SDS011;8629;42.496;25.620;2024-01-11T00:09:40;5.40;;;3.90;;
17024;SDS011;8629;42.496;25.620;2024-01-11T00:12:07;5.50;;;4.37;;
17024;SDS011;8629;42.496;25.620;2024-01-11T00:14:37;10.23;;;6.23;;
17024;SDS011;8629;42.496;25.620;2024-01-11T00:17:03;10.37;;;6.17;;
17024;SDS011;8629;42.496;25.620;2024-01-11T00:19:32;6.50;;;4.53;;
17024;SDS011;8629;42.496;25.620;2024-01-11T00:21:59;7.17;;;5.30;;
17024;SDS011;8629;42.496;25.620;2024-01-11T00:24:25;6.57;;;5.30;;
17024;SDS011;8629;42.496;25.620;2024-01-11T00:26:52;7.77;;;4.07;;
17024;SDS011;8629;42.496;25.620;2024-01-11T00:29:19;5.77;;;4.27;;
17024;SDS011;8629;42.496;25.620;2024-01-11T00:31:46;6.17;;;4.07;;
17024;SDS011;8629;42.496;25.620;2024-01-11T00:34:13;6.03;;;5.13;;
17024;SDS011;8629;42.496;25.620;2024-01-11T00:36:41;9.20;;;5.93;;
17024;SDS011;8629;42.496;25.620;2024-01-11T00:39:08;9.37;;;6.63;;
17024;SDS011;8629;42.496;25.620;2024-01-11T00:41:36;6.43;;;4.83;;
17024;SDS011;8629;42.496;25.620;2024-01-11T00:44:03;4.37;;;4.00;;
17024;SDS011;8629;42.496;25.620;2024-01-11T00:46:30;6.87;;;5.30;;
17024;SDS011;8629;42.496;25.620;2024-01-11T00:48:57;4.50;;;3.90;;
17024;SDS011;8629;42.496;25.620;2024-01-11T00:51:24;5.30;;;3.80;;
17024;SDS011;8629;42.496;25.620;2024-01-11T00:53:52;4.03;;;3.03;;
17024;SDS011;8629;42.496;25.620;2024-01-11T00:56:19;5.20;;;4.07;;
17024;SDS011;8629;42.496;25.620;2024-01-11T00:58:46;3.67;;;3.30;;
17024;SDS011;8629;42.496;25.620;2024-01-11T01:01:12;4.73;;;4.00;;
17024;SDS011;8629;42.496;25.620;2024-01-11T01:03:39;7.43;;;3.43;;
17024;SDS011;8629;42.496;25.620;2024-01-11T01:06:06;4.87;;;4.07;;
17024;SDS011;8629;42.496;25.620;2024-01-11T01:08:33;4.40;;;3.20;;
17024;SDS011;8629;42.496;25.620;2024-01-11T01:11:01;5.93;;;4.43;;
17024;SDS011;8629;42.496;25.620;2024-01-11T01:13:28;4.53;;;3.77;;
17024;SDS011;8629;42.496;25.620;2024-01-11T01:15:55;6.17;;;4.90;;
17024;SDS011;8629;42.496;25.620;2024-01-11T01:18:23;5.63;;;4.27;;
17024;SDS011;8629;42.496;25.620;2024-01-11T01:20:50;4.70;;;4.30;;
17024;SDS011;8629;42.496;25.620;2024-01-11T01:23:16;5.00;;;3.80;;
17024;SDS011;8629;42.496;25.620;2024-01-11T01:25:44;4.93;;;4.03;;
17024;SDS011;8629;42.496;25.620;2024-01-11T01:28:12;5.83;;;3.50;;
17024;SDS011;8629;42.496;25.620;2024-01-11T01:30:39;4.50;;;4.10;;
17024;SDS011;8629;42.496;25.620;2024-01-11T01:33:06;4.90;;;4.40;;
17024;SDS011;8629;42.496;25.620;2024-01-11T01:35:36;5.47;;;4.20;;
17024;SDS011;8629;42.496;25.620;2024-01-11T01:38:03;6.57;;;5.07;;
17024;SDS011;8629;42.496;25.620;2024-01-11T01:40:30;6.23;;;4.67;;
17024;SDS011;8629;42.496;25.620;2024-01-11T01:42:57;6.03;;;4.33;;
17024;SDS011;8629;42.496;25.620;2024-01-11T01:45:26;6.30;;;4.13;;
17024;SDS011;8629;42.496;25.620;2024-01-11T01:47:53;9.40;;;4.93;;
17024;SDS011;8629;42.496;25.620;2024-01-11T01:50:21;5.77;;;4.77;;
17024;SDS011;8629;42.496;25.620;2024-01-11T01:52:48;4.10;;;3.70;;
17024;SDS011;8629;42.496;25.620;2024-01-11T01:55:16;5.83;;;4.60;;
17024;SDS011;8629;42.496;25.620;2024-01-11T01:57:44;5.30;;;4.03;;
17024;SDS011;8629;42.496;25.620;2024-01-11T02:00:12;5.53;;;4.93;;
17024;SDS011;8629;42.496;25.620;2024-01-11T02:02:41;5.43;;;3.97;;
17024;SDS011;8629;42.496;25.620;2024-01-11T02:05:12;3.80;;;3.50;;
17024;SDS011;8629;42.496;25.620;2024-01-11T02:07:39;7.00;;;4.13;;
17024;SDS011;8629;42.496;25.620;2024-01-11T02:10:07;9.17;;;4.93;;
17024;SDS011;8629;42.496;25.620;2024-01-11T02:12:34;4.90;;;3.57;;
17024;SDS011;8629;42.496;25.620;2024-01-11T02:15:02;4.30;;;3.90;;
17024;SDS011;8629;42.496;25.620;2024-01-11T02:17:29;6.20;;;4.30;;
17024;SDS011;8629;42.496;25.620;2024-01-11T02:19:57;4.53;;;4.13;;
17024;SDS011;8629;42.496;25.620;2024-01-11T02:22:28;6.83;;;4.77;;
17024;SDS011;8629;42.496;25.620;2024-01-11T02:24:57;8.70;;;5.37;;
17024;SDS011;8629;42.496;25.620;2024-01-11T02:27:24;7.37;;;4.27;;
17024;SDS011;8629;42.496;25.620;2024-01-11T02:29:50;5.47;;;4.57;;
17024;SDS011;8629;42.496;25.620;2024-01-11T02:32:17;51.73;;;33.27;;
17024;SDS011;8629;42.496;25.620;2024-01-11T02:34:44;25.70;;;19.67;;
17024;SDS011;8629;42.496;25.620;2024-01-11T02:37:11;9.20;;;7.17;;
17024;SDS011;8629;42.496;25.620;2024-01-11T02:39:39;8.00;;;5.67;;
17024;SDS011;8629;42.496;25.620;2024-01-11T02:42:07;8.53;;;5.70;;
17024;SDS011;8629;42.496;25.620;2024-01-11T02:44:34;9.50;;;4.43;;
17024;SDS011;8629;42.496;25.620;2024-01-11T02:47:02;5.23;;;3.83;;
17024;SDS011;8629;42.496;25.620;2024-01-11T02:49:29;5.07;;;4.00;;
17024;SDS011;8629;42.496;25.620;2024-01-11T02:51:55;4.60;;;4.00;;
17024;SDS011;8629;42.496;25.620;2024-01-11T02:54:22;4.73;;;4.27;;
17024;SDS011;8629;42.496;25.620;2024-01-11T02:56:49;6.90;;;4.53;;
17024;SDS011;8629;42.496;25.620;2024-01-11T02:59:17;5.27;;;4.13;;
17024;SDS011;8629;42.496;25.620;2024-01-11T03:01:44;4.87;;;4.40;;
17024;SDS011;8629;42.496;25.620;2024-01-11T03:04:11;6.53;;;3.53;;
17024;SDS011;8629;42.496;25.620;2024-01-11T03:06:39;4.60;;;4.20;;
17024;SDS011;8629;42.496;25.620;2024-01-11T03:09:06;6.10;;;4.50;;
17024;SDS011;8629;42.496;25.620;2024-01-11T03:11:33;5.27;;;4.40;;
17024;SDS011;8629;42.496;25.620;2024-01-11T03:14:00;3.93;;;3.60;;
17024;SDS011;8629;42.496;25.620;2024-01-11T03:16:29;4.70;;;4.27;;
17024;SDS011;8629;42.496;25.620;2024-01-11T03:18:55;21.63;;;12.03;;
17024;SDS011;8629;42.496;25.620;2024-01-11T03:21:22;37.23;;;16.60;;
17024;SDS011;8629;42.496;25.620;2024-01-11T03:23:48;64.07;;;26.67;;
17024;SDS011;8629;42.496;25.620;2024-01-11T03:26:15;66.60;;;27.40;;
17024;SDS011;8629;42.496;25.620;2024-01-11T03:28:41;48.13;;;21.70;;
17024;SDS011;8629;42.496;25.620;2024-01-11T03:31:08;34.73;;;18.63;;
17024;SDS011;8629;42.496;25.620;2024-01-11T03:33:37;24.20;;;13.87;;
17024;SDS011;8629;42.496;25.620;2024-01-11T03:36:07;65.90;;;27.27;;
17024;SDS011;8629;42.496;25.620;2024-01-11T03:38:34;60.47;;;23.57;;
17024;SDS011;8629;42.496;25.620;2024-01-11T03:41:01;31.00;;;14.50;;
17024;SDS011;8629;42.496;25.620;2024-01-11T03:43:28;17.07;;;9.90;;
17024;SDS011;8629;42.496;25.620;2024-01-11T03:45:55;16.10;;;9.70;;
17024;SDS011;8629;42.496;25.620;2024-01-11T03:48:21;11.30;;;7.30;;
17024;SDS011;8629;42.496;25.620;2024-01-11T03:50:50;12.07;;;7.43;;
17024;SDS011;8629;42.496;25.620;2024-01-11T03:53:16;8.80;;;6.03;;
17024;SDS011;8629;42.496;25.620;2024-01-11T03:55:43;8.67;;;6.50;;
17024;SDS011;8629;42.496;25.620;2024-01-11T03:58:10;8.63;;;7.07;;
17024;SDS011;8629;42.496;25.620;2024-01-11T04:00:37;8.80;;;5.37;;
17024;SDS011;8629;42.496;25.620;2024-01-11T04:03:04;5.97;;;5.37;;
17024;SDS011;8629;42.496;25.620;2024-01-11T04:05:32;19.43;;;9.60;;
17024;SDS011;8629;42.496;25.620;2024-01-11T04:08:02;14.97;;;11.03;;
17024;SDS011;8629;42.496;25.620;2024-01-11T04:10:30;13.30;;;6.83;;
17024;SDS011;8629;42.496;25.620;2024-01-11T04:12:56;9.60;;;6.03;;
17024;SDS011;8629;42.496;25.620;2024-01-11T04:15:23;7.93;;;5.83;;
17024;SDS011;8629;42.496;25.620;2024-01-11T04:17:50;8.90;;;5.13;;
17024;SDS011;8629;42.496;25.620;2024-01-11T04:20:17;6.80;;;5.53;;
17024;SDS011;8629;42.496;25.620;2024-01-11T04:22:44;7.03;;;4.57;;
17024;SDS011;8629;42.496;25.620;2024-01-11T04:25:12;9.83;;;6.10;;
17024;SDS011;8629;42.496;25.620;2024-01-11T04:27:39;12.80;;;8.13;;
17024;SDS011;8629;42.496;25.620;2024-01-11T04:30:06;9.23;;;6.20;;
17024;SDS011;8629;42.496;25.620;2024-01-11T04:32:33;7.50;;;5.47;;
17024;SDS011;8629;42.496;25.620;2024-01-11T04:35:00;12.17;;;10.03;;
17024;SDS011;8629;42.496;25.620;2024-01-11T04:37:27;14.07;;;11.50;;
17024;SDS011;8629;42.496;25.620;2024-01-11T04:39:54;12.77;;;10.80;;
17024;SDS011;8629;42.496;25.620;2024-01-11T04:42:26;14.83;;;10.83;;
17024;SDS011;8629;42.496;25.620;2024-01-11T04:44:53;14.40;;;9.80;;
17024;SDS011;8629;42.496;25.620;2024-01-11T04:47:20;12.03;;;8.40;;
17024;SDS011;8629;42.496;25.620;2024-01-11T04:49:47;8.57;;;7.13;;
17024;SDS011;8629;42.496;25.620;2024-01-11T04:52:14;7.57;;;6.37;;
17024;SDS011;8629;42.496;25.620;2024-01-11T04:54:40;7.53;;;6.27;;
17024;SDS011;8629;42.496;25.620;2024-01-11T04:57:07;12.57;;;6.37;;
17024;SDS011;8629;42.496;25.620;2024-01-11T04:59:35;7.50;;;5.27;;
17024;SDS011;8629;42.496;25.620;2024-01-11T05:02:02;5.80;;;5.20;;
17024;SDS011;8629;42.496;25.620;2024-01-11T05:04:29;6.57;;;4.93;;
17024;SDS011;8629;42.496;25.620;2024-01-11T05:06:56;23.50;;;12.70;;
17024;SDS011;8629;42.496;25.620;2024-01-11T05:09:23;71.23;;;32.67;;
17024;SDS011;8629;42.496;25.620;2024-01-11T05:11:49;88.33;;;41.17;;
17024;SDS011;8629;42.496;25.620;2024-01-11T05:14:16;36.53;;;20.37;;
17024;SDS011;8629;42.496;25.620;2024-01-11T05:16:44;22.80;;;13.50;;
17024;SDS011;8629;42.496;25.620;2024-01-11T05:19:11;13.00;;;9.53;;
17024;SDS011;8629;42.496;25.620;2024-01-11T05:21:38;17.07;;;11.47;;
17024;SDS011;8629;42.496;25.620;2024-01-11T05:24:05;12.97;;;8.97;;
17024;SDS011;8629;42.496;25.620;2024-01-11T05:26:32;12.33;;;7.60;;
17024;SDS011;8629;42.496;25.620;2024-01-11T05:29:01;8.40;;;5.97;;
17024;SDS011;8629;42.496;25.620;2024-01-11T05:31:29;9.00;;;6.30;;
17024;SDS011;8629;42.496;25.620;2024-01-11T05:33:57;8.40;;;5.57;;
17024;SDS011;8629;42.496;25.620;2024-01-11T05:36:24;14.23;;;11.83;;
17024;SDS011;8629;42.496;25.620;2024-01-11T05:38:51;17.20;;;11.43;;
17024;SDS011;8629;42.496;25.620;2024-01-11T05:41:18;17.87;;;13.23;;
17024;SDS011;8629;42.496;25.620;2024-01-11T05:43:44;14.43;;;9.60;;
17024;SDS011;8629;42.496;25.620;2024-01-11T05:46:11;11.73;;;8.30;;
17024;SDS011;8629;42.496;25.620;2024-01-11T05:48:38;11.13;;;8.60;;
17024;SDS011;8629;42.496;25.620;2024-01-11T05:51:06;16.70;;;12.03;;
17024;SDS011;8629;42.496;25.620;2024-01-11T05:53:36;31.13;;;17.33;;
17024;SDS011;8629;42.496;25.620;2024-01-11T05:56:06;37.07;;;20.17;;
17024;SDS011;8629;42.496;25.620;2024-01-11T05:58:34;62.73;;;30.77;;
17024;SDS011;8629;42.496;25.620;2024-01-11T06:01:01;76.93;;;35.73;;
17024;SDS011;8629;42.496;25.620;2024-01-11T06:03:28;52.50;;;26.10;;
17024;SDS011;8629;42.496;25.620;2024-01-11T06:05:59;30.80;;;18.53;;
17024;SDS011;8629;42.496;25.620;2024-01-11T06:08:28;22.90;;;11.63;;
17024;SDS011;8629;42.496;25.620;2024-01-11T06:10:55;12.80;;;8.37;;
17024;SDS011;8629;42.496;25.620;2024-01-11T06:13:22;14.70;;;8.57;;
17024;SDS011;8629;42.496;25.620;2024-01-11T06:15:49;21.03;;;12.43;;
17024;SDS011;8629;42.496;25.620;2024-01-11T06:18:16;189.63;;;87.47;;
17024;SDS011;8629;42.496;25.620;2024-01-11T06:20:43;90.63;;;47.47;;
17024;SDS011;8629;42.496;25.620;2024-01-11T06:23:10;69.23;;;38.10;;
17024;SDS011;8629;42.496;25.620;2024-01-11T06:25:38;63.27;;;31.47;;
17024;SDS011;8629;42.496;25.620;2024-01-11T06:28:05;114.17;;;60.07;;
17024;SDS011;8629;42.496;25.620;2024-01-11T06:30:34;65.17;;;33.53;;
17024;SDS011;8629;42.496;25.620;2024-01-11T06:33:03;47.87;;;25.73;;
17024;SDS011;8629;42.496;25.620;2024-01-11T06:35:30;43.00;;;23.50;;
17024;SDS011;8629;42.496;25.620;2024-01-11T06:37:57;39.13;;;21.20;;
17024;SDS011;8629;42.496;25.620;2024-01-11T06:40:24;23.47;;;12.40;;
17024;SDS011;8629;42.496;25.620;2024-01-11T06:42:52;44.10;;;24.37;;
17024;SDS011;8629;42.496;25.620;2024-01-11T06:45:19;38.83;;;23.90;;
17024;SDS011;8629;42.496;25.620;2024-01-11T06:47:46;31.50;;;19.77;;
17024;SDS011;8629;42.496;25.620;2024-01-11T06:50:14;33.57;;;17.40;;
17024;SDS011;8629;42.496;25.620;2024-01-11T06:52:41;20.70;;;13.37;;
17024;SDS011;8629;42.496;25.620;2024-01-11T06:55:08;21.23;;;11.77;;
17024;SDS011;8629;42.496;25.620;2024-01-11T06:57:36;15.57;;;10.73;;
17024;SDS011;8629;42.496;25.620;2024-01-11T07:00:05;19.43;;;12.00;;
17024;SDS011;8629;42.496;25.620;2024-01-11T07:02:33;19.07;;;12.20;;
17024;SDS011;8629;42.496;25.620;2024-01-11T07:05:00;14.50;;;10.47;;
17024;SDS011;8629;42.496;25.620;2024-01-11T07:07:27;16.97;;;11.23;;
17024;SDS011;8629;42.496;25.620;2024-01-11T07:09:54;11.50;;;8.17;;
17024;SDS011;8629;42.496;25.620;2024-01-11T07:12:21;12.27;;;8.53;;
17024;SDS011;8629;42.496;25.620;2024-01-11T07:14:48;11.53;;;7.87;;
17024;SDS011;8629;42.496;25.620;2024-01-11T07:29:40;10.13;;;8.00;;
17024;SDS011;8629;42.496;25.620;2024-01-11T07:32:07;10.47;;;8.13;;
17024;SDS011;8629;42.496;25.620;2024-01-11T07:34:36;13.20;;;9.47;;
17024;SDS011;8629;42.496;25.620;2024-01-11T07:37:03;14.73;;;11.10;;
17024;SDS011;8629;42.496;25.620;2024-01-11T07:39:30;15.10;;;11.13;;
17024;SDS011;8629;42.496;25.620;2024-01-11T07:41:57;17.60;;;12.83;;
17024;SDS011;8629;42.496;25.620;2024-01-11T07:44:24;17.33;;;13.43;;
17024;SDS011;8629;42.496;25.620;2024-01-11T07:46:52;16.77;;;12.33;;
17024;SDS011;8629;42.496;25.620;2024-01-11T07:49:19;18.33;;;13.73;;
17024;SDS011;8629;42.496;25.620;2024-01-11T07:51:45;27.13;;;14.07;;
17024;SDS011;8629;42.496;25.620;2024-01-11T07:54:12;21.10;;;13.50;;
17024;SDS011;8629;42.496;25.620;2024-01-11T07:56:39;16.93;;;11.93;;
17024;SDS011;8629;42.496;25.620;2024-01-11T07:59:06;19.73;;;10.70;;
17024;SDS011;8629;42.496;25.620;2024-01-11T08:01:32;9.60;;;7.47;;
17024;SDS011;8629;42.496;25.620;2024-01-11T08:04:03;9.40;;;6.53;;
17024;SDS011;8629;42.496;25.620;2024-01-11T08:06:30;6.13;;;5.53;;
17024;SDS011;8629;42.496;25.620;2024-01-11T08:08:57;8.13;;;5.40;;
17024;SDS011;8629;42.496;25.620;2024-01-11T08:11:24;5.80;;;4.27;;
17024;SDS011;8629;42.496;25.620;2024-01-11T08:13:50;6.13;;;4.80;;
17024;SDS011;8629;42.496;25.620;2024-01-11T08:16:19;5.53;;;3.93;;
17024;SDS011;8629;42.496;25.620;2024-01-11T08:18:46;4.93;;;3.23;;
17024;SDS011;8629;42.496;25.620;2024-01-11T08:21:15;5.33;;;4.07;;
17024;SDS011;8629;42.496;25.620;2024-01-11T08:23:42;6.30;;;3.63;;
17024;SDS011;8629;42.496;25.620;2024-01-11T08:26:11;3.03;;;2.40;;
17024;SDS011;8629;42.496;25.620;2024-01-11T08:28:39;10.77;;;2.90;;
17024;SDS011;8629;42.496;25.620;2024-01-11T08:31:06;3.63;;;2.87;;
17024;SDS011;8629;42.496;25.620;2024-01-11T08:33:33;2.77;;;2.13;;
17024;SDS011;8629;42.496;25.620;2024-01-11T08:36:03;3.43;;;3.13;;
17024;SDS011;8629;42.496;25.620;2024-01-11T08:38:31;5.03;;;3.37;;
17024;SDS011;8629;42.496;25.620;2024-01-11T08:41:00;3.83;;;2.67;;
17024;SDS011;8629;42.496;25.620;2024-01-11T08:43:28;2.63;;;2.30;;
17024;SDS011;8629;42.496;25.620;2024-01-11T08:45:55;3.87;;;3.40;;
17024;SDS011;8629;42.496;25.620;2024-01-11T08:48:22;4.57;;;3.13;;
17024;SDS011;8629;42.496;25.620;2024-01-11T08:50:49;3.53;;;2.27;;
17024;SDS011;8629;42.496;25.620;2024-01-11T08:53:15;4.07;;;3.33;;
17024;SDS011;8629;42.496;25.620;2024-01-11T08:55:44;3.10;;;2.80;;
17024;SDS011;8629;42.496;25.620;2024-01-11T08:58:10;2.93;;;2.30;;
17024;SDS011;8629;42.496;25.620;2024-01-11T09:00:37;2.90;;;2.60;;
17024;SDS011;8629;42.496;25.620;2024-01-11T09:03:04;3.20;;;2.30;;
17024;SDS011;8629;42.496;25.620;2024-01-11T09:05:31;6.97;;;2.33;;
17024;SDS011;8629;42.496;25.620;2024-01-11T09:07:58;3.70;;;2.93;;
17024;SDS011;8629;42.496;25.620;2024-01-11T09:10:24;2.33;;;2.10;;
17024;SDS011;8629;42.496;25.620;2024-01-11T09:12:54;7.23;;;2.10;;
17024;SDS011;8629;42.496;25.620;2024-01-11T09:15:20;2.57;;;2.37;;
17024;SDS011;8629;42.496;25.620;2024-01-11T09:17:48;3.33;;;2.33;;
17024;SDS011;8629;42.496;25.620;2024-01-11T09:20:15;4.83;;;2.47;;
17024;SDS011;8629;42.496;25.620;2024-01-11T09:22:43;3.57;;;2.90;;
17024;SDS011;8629;42.496;25.620;2024-01-11T09:25:12;3.47;;;2.13;;
17024;SDS011;8629;42.496;25.620;2024-01-11T09:27:39;2.30;;;2.10;;
17024;SDS011;8629;42.496;25.620;2024-01-11T09:30:08;3.17;;;2.70;;
17024;SDS011;8629;42.496;25.620;2024-01-11T09:32:36;4.40;;;2.73;;
17024;SDS011;8629;42.496;25.620;2024-01-11T09:35:03;3.67;;;2.20;;
17024;SDS011;8629;42.496;25.620;2024-01-11T09:37:30;7.43;;;2.50;;
17024;SDS011;8629;42.496;25.620;2024-01-11T09:39:57;5.70;;;1.90;;
17024;SDS011;8629;42.496;25.620;2024-01-11T09:42:25;2.77;;;2.47;;
17024;SDS011;8629;42.496;25.620;2024-01-11T09:44:53;2.07;;;1.87;;
17024;SDS011;8629;42.496;25.620;2024-01-11T09:47:22;2.73;;;2.33;;
17024;SDS011;8629;42.496;25.620;2024-01-11T09:49:49;2.77;;;2.23;;
17024;SDS011;8629;42.496;25.620;2024-01-11T09:52:17;2.27;;;2.07;;
17024;SDS011;8629;42.496;25.620;2024-01-11T09:54:47;2.30;;;2.10;;
17024;SDS011;8629;42.496;25.620;2024-01-11T09:57:14;3.60;;;2.67;;
17024;SDS011;8629;42.496;25.620;2024-01-11T09:59:44;2.73;;;2.53;;
17024;SDS011;8629;42.496;25.620;2024-01-11T10:02:12;3.57;;;2.50;;
17024;SDS011;8629;42.496;25.620;2024-01-11T10:04:42;2.93;;;2.70;;
17024;SDS011;8629;42.496;25.620;2024-01-11T10:07:09;3.40;;;3.00;;
17024;SDS011;8629;42.496;25.620;2024-01-11T10:09:40;4.37;;;2.67;;
17024;SDS011;8629;42.496;25.620;2024-01-11T10:12:07;3.43;;;2.60;;
17024;SDS011;8629;42.496;25.620;2024-01-11T10:14:35;6.07;;;4.23;;
17024;SDS011;8629;42.496;25.620;2024-01-11T10:17:02;4.23;;;3.50;;
17024;SDS011;8629;42.496;25.620;2024-01-11T10:19:30;5.60;;;2.90;;
17024;SDS011;8629;42.496;25.620;2024-01-11T10:21:58;3.00;;;2.80;;
17024;SDS011;8629;42.496;25.620;2024-01-11T10:24:25;4.47;;;3.77;;
17024;SDS011;8629;42.496;25.620;2024-01-11T10:26:52;8.03;;;4.17;;
17024;SDS011;8629;42.496;25.620;2024-01-11T10:29:22;8.23;;;4.67;;
17024;SDS011;8629;42.496;25.620;2024-01-11T10:31:49;6.13;;;4.10;;
17024;SDS011;8629;42.496;25.620;2024-01-11T10:34:16;5.37;;;3.20;;
17024;SDS011;8629;42.496;25.620;2024-01-11T10:36:42;8.40;;;4.97;;
17024;SDS011;8629;42.496;25.620;2024-01-11T10:39:13;4.03;;;3.60;;
17024;SDS011;8629;42.496;25.620;2024-01-11T10:41:47;5.43;;;3.83;;
17024;SDS011;8629;42.496;25.620;2024-01-11T10:44:18;5.37;;;3.63;;
17024;SDS011;8629;42.496;25.620;2024-01-11T10:46:48;6.33;;;5.70;;
17024;SDS011;8629;42.496;25.620;2024-01-11T10:49:16;9.43;;;7.80;;
17024;SDS011;8629;42.496;25.620;2024-01-11T10:51:44;8.87;;;6.83;;
17024;SDS011;8629;42.496;25.620;2024-01-11T10:54:11;10.07;;;7.03;;
17024;SDS011;8629;42.496;25.620;2024-01-11T10:56:40;12.23;;;6.67;;
17024;SDS011;8629;42.496;25.620;2024-01-11T10:59:09;12.80;;;10.70;;
17024;SDS011;8629;42.496;25.620;2024-01-11T11:01:36;7.50;;;6.17;;
17024;SDS011;8629;42.496;25.620;2024-01-11T11:04:04;10.83;;;8.97;;
17024;SDS011;8629;42.496;25.620;2024-01-11T11:06:31;10.00;;;8.93;;
17024;SDS011;8629;42.496;25.620;2024-01-11T11:09:01;9.80;;;7.17;;
17024;SDS011;8629;42.496;25.620;2024-01-11T11:11:29;18.50;;;13.27;;
17024;SDS011;8629;42.496;25.620;2024-01-11T11:13:57;20.80;;;13.63;;
17024;SDS011;8629;42.496;25.620;2024-01-11T11:16:25;9.93;;;7.13;;
17024;SDS011;8629;42.496;25.620;2024-01-11T11:18:53;9.83;;;7.20;;
17024;SDS011;8629;42.496;25.620;2024-01-11T11:21:20;9.13;;;8.00;;
17024;SDS011;8629;42.496;25.620;2024-01-11T11:23:49;11.67;;;8.53;;
17024;SDS011;8629;42.496;25.620;2024-01-11T11:26:16;12.37;;;9.87;;
17024;SDS011;8629;42.496;25.620;2024-01-11T11:28:44;15.90;;;10.83;;
17024;SDS011;8629;42.496;25.620;2024-01-11T11:31:14;30.77;;;18.50;;
17024;SDS011;8629;42.496;25.620;2024-01-11T11:34:00;11.50;;;9.33;;
17024;SDS011;8629;42.496;25.620;2024-01-11T11:36:31;19.37;;;11.87;;
17024;SDS011;8629;42.496;25.620;2024-01-11T11:38:59;21.70;;;12.00;;
17024;SDS011;8629;42.496;25.620;2024-01-11T11:41:26;18.93;;;11.53;;
17024;SDS011;8629;42.496;25.620;2024-01-11T11:43:55;20.33;;;11.77;;
17024;SDS011;8629;42.496;25.620;2024-01-11T11:46:27;12.20;;;10.90;;
17024;SDS011;8629;42.496;25.620;2024-01-11T11:48:54;13.10;;;9.63;;
17024;SDS011;8629;42.496;25.620;2024-01-11T11:51:21;13.70;;;9.43;;
17024;SDS011;8629;42.496;25.620;2024-01-11T11:53:49;10.17;;;8.77;;
17024;SDS011;8629;42.496;25.620;2024-01-11T11:56:16;14.20;;;8.70;;
17024;SDS011;8629;42.496;25.620;2024-01-11T11:58:44;10.77;;;7.70;;
17024;SDS011;8629;42.496;25.620;2024-01-11T12:01:14;9.30;;;7.70;;
17024;SDS011;8629;42.496;25.620;2024-01-11T12:03:42;9.07;;;8.07;;
17024;SDS011;8629;42.496;25.620;2024-01-11T12:06:14;11.23;;;6.80;;
17024;SDS011;8629;42.496;25.620;2024-01-11T12:08:42;10.47;;;7.53;;
17024;SDS011;8629;42.496;25.620;2024-01-11T12:11:09;9.50;;;7.63;;
17024;SDS011;8629;42.496;25.620;2024-01-11T12:13:38;11.97;;;7.90;;
17024;SDS011;8629;42.496;25.620;2024-01-11T12:16:06;13.43;;;7.53;;
17024;SDS011;8629;42.496;25.620;2024-01-11T12:18:34;11.23;;;8.50;;
17024;SDS011;8629;42.496;25.620;2024-01-11T12:21:01;12.27;;;9.83;;
17024;SDS011;8629;42.496;25.620;2024-01-11T12:23:27;12.23;;;7.83;;
17024;SDS011;8629;42.496;25.620;2024-01-11T12:25:55;10.63;;;7.97;;
17024;SDS011;8629;42.496;25.620;2024-01-11T12:28:23;12.53;;;9.30;;
17024;SDS011;8629;42.496;25.620;2024-01-11T12:30:50;11.93;;;9.73;;
17024;SDS011;8629;42.496;25.620;2024-01-11T12:33:17;13.37;;;9.73;;
17024;SDS011;8629;42.496;25.620;2024-01-11T12:35:46;10.00;;;8.77;;
17024;SDS011;8629;42.496;25.620;2024-01-11T12:38:13;11.10;;;9.50;;
17024;SDS011;8629;42.496;25.620;2024-01-11T12:40:40;14.03;;;10.33;;
17024;SDS011;8629;42.496;25.620;2024-01-11T12:43:07;12.70;;;8.70;;
17024;SDS011;8629;42.496;25.620;2024-01-11T12:45:35;11.70;;;10.03;;
17024;SDS011;8629;42.496;25.620;2024-01-11T12:48:02;12.03;;;9.40;;
17024;SDS011;8629;42.496;25.620;2024-01-11T12:50:30;11.50;;;8.73;;
17024;SDS011;8629;42.496;25.620;2024-01-11T12:53:08;9.20;;;7.73;;
17024;SDS011;8629;42.496;25.620;2024-01-11T12:55:43;10.73;;;8.17;;
17024;SDS011;8629;42.496;25.620;2024-01-11T12:58:10;10.57;;;8.13;;
17024;SDS011;8629;42.496;25.620;2024-01-11T13:00:37;8.80;;;7.50;;
17024;SDS011;8629;42.496;25.620;2024-01-11T13:03:04;10.20;;;7.40;;
17024;SDS011;8629;42.496;25.620;2024-01-11T13:05:31;8.63;;;7.70;;
17024;SDS011;8629;42.496;25.620;2024-01-11T13:08:01;10.93;;;7.70;;
17024;SDS011;8629;42.496;25.620;2024-01-11T13:10:31;10.10;;;7.70;;
17024;SDS011;8629;42.496;25.620;2024-01-11T13:12:58;12.37;;;8.63;;
17024;SDS011;8629;42.496;25.620;2024-01-11T13:15:25;9.80;;;8.87;;
17024;SDS011;8629;42.496;25.620;2024-01-11T13:17:54;8.37;;;7.40;;
17024;SDS011;8629;42.496;25.620;2024-01-11T13:20:22;9.07;;;6.07;;
17024;SDS011;8629;42.496;25.620;2024-01-11T13:22:49;9.80;;;7.20;;
17024;SDS011;8629;42.496;25.620;2024-01-11T13:25:19;7.57;;;6.77;;
17024;SDS011;8629;42.496;25.620;2024-01-11T13:27:48;12.27;;;8.23;;
17024;SDS011;8629;42.496;25.620;2024-01-11T13:30:15;9.67;;;6.90;;
17024;SDS011;8629;42.496;25.620;2024-01-11T13:32:41;10.10;;;7.03;;
17024;SDS011;8629;42.496;25.620;2024-01-11T13:35:09;8.00;;;6.53;;
17024;SDS011;8629;42.496;25.620;2024-01-11T13:37:39;6.87;;;5.23;;
17024;SDS011;8629;42.496;25.620;2024-01-11T13:40:06;15.60;;;6.63;;
17024;SDS011;8629;42.496;25.620;2024-01-11T13:42:39;8.60;;;6.97;;
17024;SDS011;8629;42.496;25.620;2024-01-11T13:45:07;13.00;;;10.23;;
17024;SDS011;8629;42.496;25.620;2024-01-11T13:47:34;8.07;;;6.33;;
17024;SDS011;8629;42.496;25.620;2024-01-11T13:50:01;8.50;;;6.73;;
17024;SDS011;8629;42.496;25.620;2024-01-11T13:52:28;77.63;;;50.90;;
17024;SDS011;8629;42.496;25.620;2024-01-11T13:54:55;22.40;;;19.93;;
17024;SDS011;8629;42.496;25.620;2024-01-11T13:57:23;11.57;;;10.10;;
17024;SDS011;8629;42.496;25.620;2024-01-11T13:59:50;15.77;;;14.03;;
17024;SDS011;8629;42.496;25.620;2024-01-11T14:02:18;13.77;;;9.37;;
17024;SDS011;8629;42.496;25.620;2024-01-11T14:04:45;11.43;;;9.50;;
17024;SDS011;8629;42.496;25.620;2024-01-11T14:07:12;8.07;;;6.77;;
17024;SDS011;8629;42.496;25.620;2024-01-11T14:09:39;10.33;;;7.60;;
17024;SDS011;8629;42.496;25.620;2024-01-11T14:12:06;8.93;;;7.97;;
17024;SDS011;8629;42.496;25.620;2024-01-11T14:14:33;17.30;;;12.17;;
17024;SDS011;8629;42.496;25.620;2024-01-11T14:17:00;11.10;;;8.30;;
17024;SDS011;8629;42.496;25.620;2024-01-11T14:19:28;13.37;;;10.77;;
17024;SDS011;8629;42.496;25.620;2024-01-11T14:21:55;15.37;;;12.57;;
17024;SDS011;8629;42.496;25.620;2024-01-11T14:24:22;7.93;;;7.00;;
17024;SDS011;8629;42.496;25.620;2024-01-11T14:26:50;11.13;;;7.90;;
17024;SDS011;8629;42.496;25.620;2024-01-11T14:29:17;7.83;;;6.53;;
17024;SDS011;8629;42.496;25.620;2024-01-11T14:31:44;10.03;;;8.70;;
17024;SDS011;8629;42.496;25.620;2024-01-11T14:34:11;7.83;;;7.03;;
17024;SDS011;8629;42.496;25.620;2024-01-11T14:36:39;12.57;;;9.50;;
17024;SDS011;8629;42.496;25.620;2024-01-11T14:39:06;7.03;;;5.73;;
17024;SDS011;8629;42.496;25.620;2024-01-11T14:41:35;11.57;;;7.13;;
17024;SDS011;8629;42.496;25.620;2024-01-11T14:44:02;10.30;;;9.07;;
17024;SDS011;8629;42.496;25.620;2024-01-11T14:46:30;24.37;;;15.67;;
17024;SDS011;8629;42.496;25.620;2024-01-11T14:48:57;29.00;;;16.83;;
17024;SDS011;8629;42.496;25.620;2024-01-11T14:51:25;22.70;;;14.80;;
17024;SDS011;8629;42.496;25.620;2024-01-11T14:53:57;15.90;;;11.50;;